.
WxDataArchive / Data Records for 2012-10-23
2012-10-22 October 2012 2012-10-24

Data Records for Tuesday, 23 October 2012

Time	Temp	Chill	HIndex	Humid	Dewpt	 Wind 	HiWind	WindDir	Rain 	Barom 
-----	----	-----	------	-----	-----	------	------	-------	-----	----- 
00:00	66.4	66.4	66.4	69	55.9	2	6	22	0.00	29.950 
00:05	66.4	66.4	66.4	69	55.9	1	5	22	0.00	29.950 
00:10	66.3	66.3	66.3	69	55.8	1	3	225	0.00	29.950 
00:15	66.3	66.3	66.3	69	55.8	1	4	90	0.00	29.944 
00:20	66.1	66.1	66.1	70	56.0	0	2	45	0.00	29.944 
00:25	66.0	66.0	66.0	70	55.9	0	2	270	0.00	29.944 
00:30	65.8	65.8	65.8	70	55.7	1	3	270	0.00	29.945 
00:35	65.6	65.6	65.6	71	55.9	0	3	22	0.00	29.945 
00:40	65.6	65.6	65.6	71	55.9	0	2	22	0.00	29.945 
00:45	65.5	65.5	65.5	71	55.8	0	4	45	0.00	29.940 
00:50	65.5	65.5	65.5	71	55.8	1	4	45	0.00	29.940 
00:55	65.3	65.3	65.3	72	56.0	1	3	248	0.00	29.940 
01:00	65.3	65.3	65.3	72	56.0	1	4	248	0.00	29.931 
01:05	65.2	65.2	65.2	72	55.9	0	2	338	0.00	29.931 
01:10	65.0	65.0	65.0	72	55.7	0	2	338	0.00	29.931 
01:15	64.8	64.8	64.8	72	55.6	1	4	292	0.00	29.929 
01:20	64.8	64.8	64.8	72	55.6	0	3	225	0.00	29.929 
01:25	64.8	64.8	64.8	72	55.6	0	2	225	0.00	29.929 
01:30	64.8	64.8	64.8	72	55.6	0	1	225	0.00	29.927 
01:35	64.8	64.8	64.8	72	55.6	0	4	225	0.00	29.927 
01:40	64.7	64.7	64.7	72	55.5	0	5	248	0.00	29.927 
01:45	64.7	64.7	64.7	72	55.5	1	4	248	0.00	29.927 
01:50	64.5	64.5	64.5	72	55.3	0	3	338	0.00	29.927 
01:55	64.3	64.3	64.3	72	55.1	1	4	270	0.00	29.927 
02:00	64.2	64.2	64.2	72	55.0	0	3	270	0.00	29.928 
02:05	64.0	64.0	64.0	73	55.2	0	3	270	0.00	29.928 
02:10	63.9	63.9	63.9	73	55.1	0	2	270	0.00	29.928 
02:15	63.5	63.5	63.5	73	54.7	0	3	248	0.00	29.926 
02:20	63.4	63.4	63.4	74	55.0	0	2	248	0.00	29.926 
02:25	63.2	63.2	63.2	74	54.8	0	3	248	0.00	29.926 
02:30	62.9	62.9	62.9	75	54.8	0	2	248	0.00	29.922 
02:35	62.7	62.7	62.7	75	54.7	0	3	248	0.00	29.922 
02:40	62.6	62.6	62.6	75	54.6	0	1	248	0.00	29.922 
02:45	62.4	62.4	62.4	76	54.7	0	1	248	0.00	29.916 
02:50	62.1	62.1	62.1	76	54.4	0	1	248	0.00	29.916 
02:55	62.0	62.0	62.0	77	54.7	0	1	248	0.00	29.916 
03:00	62.0	62.0	62.0	77	54.7	0	2	248	0.00	29.921 
03:05	61.8	61.8	61.8	77	54.5	0	1	248	0.00	29.921 
03:10	61.6	61.6	61.6	77	54.3	0	1	248	0.00	29.921 
03:15	61.6	61.6	61.6	77	54.3	0	1	248	0.00	29.914 
03:20	61.5	61.5	61.5	78	54.6	0	2	248	0.00	29.914 
03:25	61.3	61.3	61.3	78	54.4	0	0	---	0.00	29.914 
03:30	61.3	61.3	61.3	78	54.4	0	1	248	0.00	29.913 
03:35	61.3	61.3	61.3	78	54.4	0	1	248	0.00	29.913 
03:40	61.6	61.6	61.6	78	54.7	0	1	248	0.00	29.913 
03:45	61.8	61.8	61.8	77	54.5	0	1	248	0.00	29.923 
03:50	62.1	62.1	62.1	76	54.4	0	1	248	0.00	29.923 
03:55	62.3	62.3	62.3	76	54.6	0	3	248	0.00	29.923 
04:00	62.4	62.4	62.4	75	54.4	0	3	248	0.00	29.913 
04:05	62.7	62.7	62.7	73	53.9	1	3	248	0.00	29.913 
04:10	63.1	63.1	63.1	73	54.3	1	7	248	0.00	29.913 
04:15	63.4	63.4	63.4	72	54.2	1	7	248	0.00	29.915 
04:20	63.5	63.5	63.5	73	54.7	1	6	270	0.00	29.915 
04:25	63.4	63.4	63.4	74	55.0	1	4	248	0.00	29.915 
04:30	63.1	63.1	63.1	75	55.0	2	5	248	0.01	29.914 
04:35	62.9	62.9	62.9	76	55.2	1	5	248	0.00	29.914 
04:40	62.6	62.6	62.6	77	55.3	0	2	248	0.00	29.914 
04:45	62.3	62.3	62.3	79	55.7	0	2	248	0.00	29.916 
04:50	61.8	61.8	61.8	80	55.6	0	1	248	0.00	29.916 
04:55	61.5	61.5	61.5	81	55.6	1	6	248	0.00	29.916 
05:00	61.5	61.5	61.5	82	55.9	1	6	248	0.00	29.918 
05:05	61.3	61.3	61.3	83	56.1	0	3	248	0.00	29.918 
05:10	61.3	61.3	61.3	84	56.4	1	4	248	0.00	29.918 
05:15	61.3	61.3	61.3	84	56.4	0	2	248	0.00	29.921 
05:20	61.3	61.3	61.3	84	56.4	1	3	248	0.00	29.921 
05:25	61.3	61.3	61.3	84	56.4	0	2	248	0.00	29.921 
05:30	61.3	61.3	61.3	84	56.4	0	2	248	0.00	29.922 
05:35	61.2	61.2	61.2	84	56.3	0	2	248	0.00	29.922 
05:40	61.2	61.2	61.2	84	56.3	0	3	248	0.00	29.922 
05:45	61.2	61.2	61.2	84	56.3	0	1	248	0.00	29.925 
05:50	61.2	61.2	61.2	84	56.3	0	1	248	0.00	29.925 
05:55	61.0	61.0	61.0	84	56.1	0	1	248	0.00	29.925 
06:00	61.0	61.0	61.0	84	56.1	0	2	248	0.00	29.921 
06:05	61.0	61.0	61.0	84	56.1	0	2	248	0.00	29.921 
06:10	61.0	61.0	61.0	83	55.8	0	2	248	0.00	29.921 
06:15	61.2	61.2	61.2	82	55.7	0	1	248	0.00	29.922 
06:20	61.2	61.2	61.2	82	55.7	0	1	248	0.00	29.922 
06:25	61.2	61.2	61.2	81	55.3	0	1	248	0.00	29.922 
06:30	61.2	61.2	61.2	81	55.3	0	1	248	0.00	29.925 
06:35	61.3	61.3	61.3	80	55.1	0	1	248	0.00	29.925 
06:40	61.3	61.3	61.3	79	54.7	0	1	248	0.00	29.925 
06:45	61.2	61.2	61.2	79	54.6	0	1	248	0.00	29.932 
06:50	61.2	61.2	61.2	79	54.6	0	1	248	0.00	29.932 
06:55	61.2	61.2	61.2	78	54.3	0	3	248	0.00	29.932 
07:00	61.3	61.3	61.3	77	54.0	0	3	248	0.00	29.930 
07:05	61.3	61.3	61.3	77	54.0	0	2	270	0.00	29.930 
07:10	61.5	61.5	61.5	76	53.9	0	3	270	0.00	29.930 
07:15	61.6	61.6	61.6	76	54.0	0	1	270	0.00	29.925 
07:20	61.5	61.5	61.5	76	53.9	0	2	270	0.00	29.925 
07:25	61.5	61.5	61.5	75	53.5	0	1	270	0.00	29.925 
07:30	61.5	61.5	61.5	75	53.5	0	1	270	0.00	29.921 
07:35	61.3	61.3	61.3	75	53.3	0	1	270	0.00	29.921 
07:40	61.3	61.3	61.3	75	53.3	0	2	270	0.00	29.921 
07:45	61.3	61.3	61.3	76	53.7	0	2	270	0.00	29.925 
07:50	61.3	61.3	61.3	76	53.7	0	1	270	0.00	29.925 
07:55	61.3	61.3	61.3	75	53.3	0	2	270	0.00	29.925 
08:00	61.3	61.3	61.3	76	53.7	0	2	270	0.00	29.932 
08:05	61.3	61.3	61.3	76	53.7	0	2	270	0.00	29.932 
08:10	61.3	61.3	61.3	76	53.7	0	1	270	0.00	29.932 
08:15	61.2	61.2	61.2	76	53.6	0	1	270	0.00	29.939 
08:20	61.2	61.2	61.2	77	53.9	0	1	270	0.00	29.939 
08:25	61.3	61.3	61.3	77	54.0	0	1	270	0.00	29.939 
08:30	61.3	61.3	61.3	77	54.0	0	2	270	0.00	29.946 
08:35	61.5	61.5	61.5	77	54.2	0	1	270	0.00	29.946 
08:40	61.6	61.6	61.6	77	54.3	0	1	270	0.00	29.946 
08:45	61.8	61.8	61.8	77	54.5	0	1	270	0.00	29.950 
08:50	61.8	61.8	61.8	77	54.5	0	2	270	0.00	29.950 
08:55	62.0	62.0	62.0	77	54.7	0	2	270	0.00	29.950 
09:00	62.1	62.1	62.1	77	54.8	0	4	225	0.00	29.958 
09:05	62.1	62.1	62.1	77	54.8	0	3	225	0.00	29.958 
09:10	62.3	62.3	62.3	77	55.0	0	1	225	0.00	29.958 
09:15	62.3	62.3	62.3	77	55.0	0	2	225	0.00	29.970 
09:20	62.3	62.3	62.3	77	55.0	0	1	225	0.00	29.970 
09:25	62.3	62.3	62.3	77	55.0	0	2	225	0.00	29.970 
09:30	62.4	62.4	62.4	77	55.1	0	2	225	0.00	29.985 
09:35	62.4	62.4	62.4	76	54.7	0	1	225	0.00	29.985 
09:40	62.4	62.4	62.4	76	54.7	0	3	225	0.00	29.985 
09:45	62.6	62.6	62.6	75	54.6	1	4	248	0.00	29.994 
09:50	62.7	62.7	62.7	74	54.3	1	4	248	0.00	29.994 
09:55	62.9	62.9	62.9	73	54.1	1	5	248	0.00	29.994 
10:00	63.2	63.2	63.2	72	54.0	2	5	292	0.00	29.992 
10:05	63.5	63.5	63.5	72	54.3	2	5	248	0.00	29.992 
10:10	63.7	63.7	63.7	71	54.1	3	7	248	0.00	29.992 
10:15	63.9	63.9	63.9	71	54.3	2	7	248	0.00	29.997 
10:20	63.9	63.9	63.9	72	54.7	1	5	248	0.00	29.997 
10:25	63.9	63.9	63.9	72	54.7	1	5	248	0.00	29.997 
10:30	63.9	63.9	63.9	73	55.1	1	4	248	0.00	29.995 
10:35	63.9	63.9	63.9	74	55.4	1	5	248	0.00	29.995 
10:40	63.9	63.9	63.9	75	55.8	2	4	270	0.00	29.995 
10:45	63.7	63.7	63.7	76	56.0	0	3	248	0.00	29.983 
10:50	63.5	63.5	63.5	77	56.2	1	3	270	0.00	29.983 
10:55	63.5	63.5	63.5	79	56.9	2	5	270	0.00	29.983 
11:00	63.5	63.5	63.5	81	57.6	2	7	270	0.00	29.968 
11:05	63.5	63.5	63.5	81	57.6	2	4	292	0.00	29.968 
11:10	63.4	63.4	63.4	83	58.1	1	5	248	0.01	29.968 
11:15	63.1	63.1	63.1	84	58.2	2	6	248	0.00	29.968 
11:20	62.6	62.6	62.6	85	58.0	1	3	248	0.00	29.968 
11:25	62.3	62.3	62.3	86	58.1	1	3	248	0.01	29.968 
11:30	62.0	62.0	62.0	87	58.1	1	4	248	0.00	29.963 
11:35	61.8	61.8	61.8	88	58.2	0	1	248	0.01	29.963 
11:40	61.6	61.6	61.6	89	58.3	0	4	248	0.00	29.963 
11:45	61.6	61.6	61.6	89	58.3	0	3	248	0.00	29.949 
11:50	61.5	61.5	61.5	90	58.5	0	1	248	0.01	29.949 
11:55	61.5	61.5	61.5	90	58.5	0	4	248	0.00	29.949 
12:00	61.5	61.5	61.5	90	58.5	0	1	248	0.01	29.951 
12:05	61.5	61.5	61.5	90	58.5	0	2	248	0.01	29.951 
12:10	61.5	61.5	61.5	90	58.5	0	1	338	0.01	29.951 
12:15	61.5	61.5	61.5	91	58.8	0	2	248	0.00	29.979 
12:20	61.6	61.6	61.6	91	58.9	0	3	248	0.00	29.979 
12:25	61.8	61.8	61.8	92	59.4	0	2	248	0.00	29.979 
12:30	62.0	62.0	62.0	92	59.6	0	1	248	0.00	29.974 
12:35	62.1	62.1	62.1	92	59.7	0	2	248	0.00	29.974 
12:40	62.3	62.3	62.3	92	59.9	0	2	248	0.00	29.974 
12:45	62.4	62.4	62.4	92	60.0	1	3	225	0.00	29.959 
12:50	62.6	62.6	62.6	92	60.2	1	4	315	0.01	29.959 
12:55	62.7	62.7	62.7	92	60.3	0	3	315	0.00	29.959 
13:00	62.7	62.7	62.7	92	60.3	1	4	315	0.00	29.949 
13:05	62.9	62.9	62.9	92	60.5	0	5	90	0.00	29.949 
13:10	63.1	63.1	63.1	92	60.7	0	6	68	0.00	29.949 
13:15	63.2	63.2	63.2	92	60.8	0	3	225	0.00	29.933 
13:20	63.4	63.4	63.4	92	61.0	1	2	225	0.00	29.933 
13:25	63.4	63.4	63.4	92	61.0	1	4	270	0.00	29.933 
13:30	63.2	63.2	63.2	91	60.5	1	4	248	0.00	29.947 
13:35	63.2	63.2	63.2	91	60.5	1	5	248	0.00	29.947 
13:40	63.2	63.2	63.2	90	60.2	1	5	248	0.00	29.947 
13:45	63.1	63.1	63.1	90	60.1	2	7	270	0.00	29.953 
13:50	63.1	63.1	63.1	89	59.8	2	7	248	0.00	29.953 
13:55	62.9	62.9	62.9	89	59.6	3	10	248	0.00	29.953 
14:00	62.7	62.7	62.7	89	59.4	3	10	248	0.00	29.954 
14:05	62.6	62.6	62.6	89	59.3	3	10	270	0.00	29.954 
14:10	62.4	62.4	62.4	89	59.1	2	7	270	0.00	29.954 
14:15	62.3	62.3	62.3	89	59.0	2	5	292	0.00	29.954 
14:20	62.1	62.1	62.1	90	59.1	2	6	248	0.00	29.954 
14:25	62.1	62.1	62.1	90	59.1	1	3	270	0.00	29.954 
14:30	62.1	62.1	62.1	91	59.4	2	7	248	0.00	29.948 
14:35	62.1	62.1	62.1	91	59.4	2	4	270	0.00	29.948 
14:40	62.1	62.1	62.1	91	59.4	1	3	248	0.00	29.948 
14:45	62.1	62.1	62.1	91	59.4	1	5	248	0.00	29.936 
14:50	62.3	62.3	62.3	91	59.6	1	3	270	0.00	29.936 
14:55	62.3	62.3	62.3	90	59.3	2	6	248	0.00	29.936 
15:00	62.3	62.3	62.3	90	59.3	2	7	248	0.00	29.936 
15:05	62.3	62.3	62.3	89	59.0	2	5	248	0.00	29.936 
15:10	62.4	62.4	62.4	89	59.1	1	6	248	0.00	29.936 
15:15	62.4	62.4	62.4	88	58.8	1	4	248	0.00	29.937 
15:20	62.6	62.6	62.6	88	59.0	1	5	248	0.00	29.937 
15:25	62.6	62.6	62.6	88	59.0	3	7	248	0.00	29.937 
15:30	62.7	62.7	62.7	88	59.1	3	10	248	0.00	29.938 
15:35	62.9	62.9	62.9	87	59.0	1	5	248	0.00	29.938 
15:40	63.2	63.2	63.2	87	59.3	1	4	248	0.00	29.938 
15:45	63.4	63.4	63.4	87	59.5	1	3	248	0.00	29.936 
15:50	63.5	63.5	63.5	86	59.2	1	6	248	0.00	29.936 
15:55	63.7	63.7	63.7	86	59.4	1	2	248	0.00	29.936 
16:00	63.9	63.9	63.9	85	59.3	1	4	248	0.00	29.932 
16:05	64.2	64.2	64.2	84	59.3	0	2	270	0.00	29.932 
16:10	64.2	64.2	64.2	84	59.3	1	3	248	0.00	29.932 
16:15	64.3	64.3	64.3	83	59.0	0	3	248	0.00	29.924 
16:20	64.5	64.5	64.5	83	59.2	0	2	248	0.00	29.924 
16:25	64.7	64.7	64.7	83	59.4	0	1	248	0.00	29.924 
16:30	64.8	64.8	64.8	83	59.5	0	2	248	0.00	29.934 
16:35	64.8	64.8	64.8	82	59.2	0	3	248	0.00	29.934 
16:40	64.8	64.8	64.8	81	58.8	0	3	248	0.00	29.934 
16:45	64.8	64.8	64.8	82	59.2	0	1	248	0.00	29.933 
16:50	64.7	64.7	64.7	82	59.1	0	4	90	0.00	29.933 
16:55	64.7	64.7	64.7	82	59.1	0	3	270	0.00	29.933 
17:00	64.7	64.7	64.7	82	59.1	0	1	270	0.00	29.934 
17:05	64.7	64.7	64.7	82	59.1	0	1	270	0.00	29.934 
17:10	64.7	64.7	64.7	83	59.4	0	1	270	0.00	29.934 
17:15	64.7	64.7	64.7	83	59.4	0	2	270	0.00	29.938 
17:20	64.7	64.7	64.7	83	59.4	0	2	270	0.00	29.938 
17:25	64.7	64.7	64.7	83	59.4	1	3	90	0.00	29.938 
17:30	64.7	64.7	64.7	82	59.1	1	5	248	0.00	29.940 
17:35	64.8	64.8	64.8	81	58.8	1	4	248	0.00	29.940 
17:40	64.8	64.8	64.8	81	58.8	2	4	248	0.00	29.940 
17:45	65.0	65.0	65.0	80	58.7	2	7	248	0.00	29.949 
17:50	64.8	64.8	64.8	80	58.5	1	6	248	0.00	29.949 
17:55	64.8	64.8	64.8	80	58.5	1	6	248	0.00	29.949 
18:00	64.8	64.8	64.8	80	58.5	1	3	270	0.00	29.950 
18:05	64.7	64.7	64.7	80	58.4	0	2	270	0.00	29.950 
18:10	64.7	64.7	64.7	80	58.4	0	1	270	0.00	29.950 
18:15	64.7	64.7	64.7	80	58.4	0	2	270	0.00	29.953 
18:20	64.5	64.5	64.5	80	58.2	0	2	270	0.00	29.953 
18:25	64.5	64.5	64.5	80	58.2	1	3	270	0.00	29.953 
18:30	64.5	64.5	64.5	80	58.2	0	4	270	0.00	29.959 
18:35	64.5	64.5	64.5	80	58.2	0	3	270	0.00	29.959 
18:40	64.5	64.5	64.5	80	58.2	1	4	270	0.00	29.959 
18:45	64.3	64.3	64.3	80	58.0	0	1	270	0.00	29.964 
18:50	64.3	64.3	64.3	81	58.3	0	2	270	0.00	29.964 
18:55	64.2	64.2	64.2	81	58.2	0	1	270	0.00	29.964 
19:00	64.0	64.0	64.0	81	58.0	0	1	270	0.00	29.965 
19:05	63.9	63.9	63.9	81	57.9	0	1	270	0.00	29.965 
19:10	63.7	63.7	63.7	82	58.1	0	1	270	0.00	29.965 
19:15	63.5	63.5	63.5	82	57.9	0	0	---	0.00	29.968 
19:20	63.4	63.4	63.4	83	58.1	0	1	270	0.00	29.968 
19:25	63.2	63.2	63.2	83	57.9	0	0	---	0.00	29.968 
19:30	63.1	63.1	63.1	83	57.8	0	0	---	0.00	29.973 
19:35	62.9	62.9	62.9	83	57.7	0	0	---	0.00	29.973 
19:40	62.6	62.6	62.6	84	57.7	0	0	---	0.00	29.973 
19:45	62.4	62.4	62.4	84	57.5	0	0	---	0.00	29.978 
19:50	62.1	62.1	62.1	84	57.2	0	0	---	0.00	29.978 
19:55	62.0	62.0	62.0	85	57.4	0	0	---	0.00	29.978 
20:00	62.0	62.0	62.0	86	57.8	0	0	---	0.00	29.985 
20:05	61.8	61.8	61.8	86	57.6	0	0	---	0.00	29.985 
20:10	61.8	61.8	61.8	86	57.6	0	0	---	0.00	29.985 
20:15	61.8	61.8	61.8	87	57.9	0	0	---	0.00	29.984 
20:20	61.8	61.8	61.8	87	57.9	0	0	---	0.00	29.984 
20:25	61.8	61.8	61.8	87	57.9	0	1	270	0.00	29.984 
20:30	61.6	61.6	61.6	87	57.7	0	0	---	0.00	29.984 
20:35	61.6	61.6	61.6	87	57.7	0	0	---	0.00	29.984 
20:40	61.5	61.5	61.5	87	57.6	0	0	---	0.00	29.984 
20:45	61.3	61.3	61.3	87	57.4	0	0	---	0.00	29.985 
20:50	61.2	61.2	61.2	88	57.6	0	0	---	0.00	29.985 
20:55	61.0	61.0	61.0	88	57.4	0	0	---	0.00	29.985 
21:00	60.9	60.9	60.9	88	57.3	0	0	---	0.00	29.986 
21:05	60.7	60.7	60.7	89	57.4	0	0	---	0.00	29.986 
21:10	60.5	60.5	60.5	89	57.2	0	0	---	0.00	29.986 
21:15	60.5	60.5	60.5	89	57.2	0	0	---	0.00	29.985 
21:20	60.4	60.4	60.4	89	57.1	0	0	---	0.00	29.985 
21:25	60.4	60.4	60.4	90	57.4	0	0	---	0.00	29.985 
21:30	60.2	60.2	60.2	90	57.3	0	0	---	0.00	29.987 
21:35	60.2	60.2	60.2	90	57.3	0	0	---	0.00	29.987 
21:40	60.2	60.2	60.2	91	57.6	0	0	---	0.00	29.987 
21:45	60.2	60.2	60.2	91	57.6	0	0	---	0.00	29.988 
21:50	60.2	60.2	60.2	91	57.6	0	0	---	0.00	29.988 
21:55	60.2	60.2	60.2	91	57.6	0	0	---	0.00	29.988 
22:00	60.2	60.2	60.2	91	57.6	0	0	---	0.00	29.986 
22:05	60.2	60.2	60.2	92	57.9	0	0	---	0.00	29.986 
22:10	60.2	60.2	60.2	92	57.9	0	0	---	0.00	29.986 
22:15	60.2	60.2	60.2	92	57.9	0	0	---	0.00	29.985 
22:20	60.2	60.2	60.2	92	57.9	0	0	---	0.00	29.985 
22:25	60.2	60.2	60.2	92	57.9	0	0	---	0.00	29.985 
22:30	60.2	60.2	60.2	92	57.9	0	0	---	0.00	29.986 
22:35	60.2	60.2	60.2	92	57.9	0	0	---	0.00	29.986 
22:40	60.2	60.2	60.2	92	57.9	0	1	270	0.00	29.986 
22:45	60.2	60.2	60.2	92	57.9	0	1	270	0.00	29.986 
22:50	60.2	60.2	60.2	91	57.6	0	2	270	0.00	29.986 
22:55	60.2	60.2	60.2	91	57.6	0	1	270	0.00	29.986 
23:00	60.2	60.2	60.2	91	57.6	0	0	---	0.00	29.992 
23:05	60.2	60.2	60.2	91	57.6	0	0	---	0.00	29.992 
23:10	60.2	60.2	60.2	91	57.6	0	0	---	0.00	29.992 
23:15	60.2	60.2	60.2	91	57.6	0	1	270	0.00	29.992 
23:20	60.2	60.2	60.2	91	57.6	0	2	270	0.00	29.992 
23:25	60.2	60.2	60.2	91	57.6	0	1	270	0.00	29.992 
23:30	60.1	60.1	60.1	91	57.5	0	0	---	0.00	29.993 
23:35	60.1	60.1	60.1	91	57.5	0	0	---	0.00	29.993 
23:40	60.1	60.1	60.1	91	57.5	0	0	---	0.00	29.993 
23:45	60.1	60.1	60.1	91	57.5	0	1	270	0.00	29.990 
23:50	60.1	60.1	60.1	91	57.5	0	1	270	0.00	29.990 
23:55	60.1	60.1	60.1	91	57.5	0	1	270	0.00	29.990 

CoCoRaHS
IN-AL-39
A2 Web Hosting
Creative Commons License
GoDaddy
search engine by freefind advanced

loaded 2018-11-15 13:41:29 • last modified 2010-11-18 10:43:29
Privacy PolicyDisclaimer
• wx.awcolley.com is powered by PmWiki v.2002016 •
• all content (unless otherwise noted) © 2018 A W Colley